createdAt,value
2022-09-28T02:37:29.471Z,9.00
2022-09-28T02:40:33.636Z,10.05
2022-09-28T02:43:47.926Z,9.63
2022-09-28T02:47:21.900Z,9.52
2022-09-28T02:50:54.634Z,9.85
2022-09-28T02:54:18.527Z,8.75
2022-09-28T02:57:43.389Z,9.90
2022-09-28T03:01:01.471Z,9.05
2022-09-28T03:04:25.711Z,9.85
2022-09-28T03:08:01.115Z,9.40
2022-09-28T03:11:13.898Z,11.15
2022-09-28T03:14:16.066Z,10.55
2022-09-28T03:17:24.566Z,9.73
2022-09-28T03:20:28.075Z,9.15
2022-09-28T03:23:29.738Z,10.45
2022-09-28T03:26:35.680Z,9.13
2022-09-28T03:42:08.211Z,9.27
2022-09-28T03:53:47.920Z,8.68
2022-09-28T04:01:53.693Z,9.05
2022-09-28T04:10:35.206Z,9.75
2022-09-28T04:13:19.869Z,9.70
2022-09-28T04:16:24.462Z,10.25
2022-09-28T04:19:39.488Z,10.70
2022-09-28T04:22:51.226Z,10.23
2022-09-28T04:26:16.849Z,9.98
2022-09-28T04:29:19.245Z,9.45
2022-09-28T04:32:49.517Z,10.88
2022-09-28T04:35:54.634Z,9.95
2022-09-28T04:40:05.359Z,9.30
2022-09-28T04:42:55.073Z,10.30
2022-09-28T04:50:24.608Z,11.35
2022-09-28T04:53:51.229Z,10.88
2022-09-28T04:56:56.431Z,11.65
2022-09-28T05:00:03.959Z,10.70
2022-09-28T05:03:08.870Z,9.85
2022-09-28T05:06:50.314Z,11.52
2022-09-28T05:09:58.896Z,11.85
2022-09-28T05:14:04.022Z,10.88
2022-09-28T05:16:49.196Z,11.70
2022-09-28T05:20:16.227Z,11.77
2022-09-28T05:23:18.170Z,12.55
2022-09-28T05:26:20.723Z,11.50
2022-09-28T05:29:22.886Z,10.25
2022-09-28T05:32:24.555Z,12.90
2022-09-28T05:35:49.749Z,13.23
2022-09-28T05:38:55.331Z,11.40
2022-09-28T05:41:57.908Z,13.18
2022-09-28T05:44:59.773Z,12.02
2022-09-28T05:48:02.141Z,12.20
2022-09-28T05:51:04.493Z,12.77
2022-09-28T05:54:07.255Z,11.52
2022-09-28T05:57:14.086Z,11.70
2022-09-28T06:00:18.458Z,14.38
2022-09-28T06:03:27.425Z,11.82
2022-09-28T06:06:29.224Z,8.77
2022-09-28T06:09:31.805Z,8.10
2022-09-28T06:12:47.963Z,5.78
2022-09-28T06:15:51.169Z,5.82
2022-09-28T06:18:52.934Z,6.65
2022-09-28T06:22:13.052Z,6.20
2022-09-28T06:25:25.934Z,7.57
2022-09-28T06:28:28.115Z,7.88
2022-09-28T06:31:32.383Z,7.60
2022-09-28T06:34:35.199Z,9.35
2022-09-28T06:37:36.898Z,8.95
2022-09-28T06:40:38.954Z,9.30
2022-09-28T06:43:41.292Z,9.25
2022-09-28T06:47:01.707Z,10.45
2022-09-28T06:50:16.326Z,9.25
2022-09-28T06:54:00.004Z,10.38
2022-09-28T06:57:24.746Z,10.52
2022-09-28T07:00:46.540Z,9.77
2022-09-28T07:03:50.524Z,9.93
2022-09-28T07:07:20.391Z,9.82
2022-09-28T07:10:27.968Z,11.50
2022-09-28T07:13:50.805Z,9.80
2022-09-28T07:17:12.247Z,9.90
2022-09-28T07:20:19.101Z,9.75
2022-09-28T07:23:24.559Z,12.50
2022-09-28T07:26:45.581Z,11.48
2022-09-28T07:30:07.824Z,12.48
2022-09-28T07:33:19.186Z,13.55
2022-09-28T07:36:24.735Z,12.30
2022-09-28T07:39:27.610Z,12.02
2022-09-28T07:42:30.598Z,16.02
2022-09-28T07:45:36.015Z,12.90
2022-09-28T07:48:41.401Z,10.73
2022-09-28T07:51:56.523Z,9.52
2022-09-28T07:55:18.465Z,13.45
2022-09-28T07:58:32.838Z,10.73
2022-09-28T08:01:59.568Z,10.68
2022-09-28T08:05:09.408Z,11.77
2022-09-28T08:08:14.175Z,12.63
2022-09-28T08:11:24.030Z,11.45
2022-09-28T08:14:47.643Z,13.98
2022-09-28T08:18:27.620Z,15.25
2022-09-28T08:22:14.794Z,13.13
2022-09-28T08:25:49.626Z,14.50
2022-09-28T08:29:04.843Z,16.05
2022-09-28T08:32:32.980Z,12.60
2022-09-28T08:36:00.997Z,14.00
2022-09-28T08:39:31.755Z,11.90
2022-09-28T08:42:58.538Z,10.93
2022-09-28T08:50:56.237Z,11.80
2022-09-28T08:55:11.187Z,10.00
2022-09-28T08:59:16.739Z,10.10
2022-09-28T09:26:40.471Z,7.88
2022-09-28T09:30:20.549Z,7.18
2022-09-28T09:34:17.838Z,7.32
2022-09-28T09:38:00.800Z,6.07
2022-09-28T09:41:45.287Z,5.45
2022-09-28T09:45:33.702Z,4.72
2022-09-28T09:48:50.355Z,5.10
2022-09-28T09:52:31.189Z,5.38
2022-09-28T09:55:43.845Z,5.72
2022-09-28T09:59:12.190Z,4.70
2022-09-28T10:02:35.140Z,5.72
2022-09-28T10:05:47.422Z,6.18
2022-09-28T10:09:11.327Z,6.65
2022-09-28T10:12:20.744Z,5.70
2022-09-28T10:15:25.749Z,6.63
2022-09-28T10:18:43.734Z,6.63
2022-09-28T10:22:05.789Z,7.35
2022-09-28T10:25:10.711Z,7.35
2022-09-28T10:28:21.477Z,7.47
2022-09-28T10:31:47.242Z,7.32
2022-09-28T10:35:18.164Z,7.00
2022-09-28T10:38:24.513Z,8.20
2022-09-28T10:41:32.686Z,8.60
2022-09-28T10:45:20.902Z,8.95
2022-09-28T10:48:23.019Z,6.68
2022-09-28T10:51:49.561Z,6.75
2022-09-28T10:54:58.565Z,6.75
2022-09-28T10:58:00.849Z,5.78
2022-09-28T11:01:23.031Z,6.03
2022-09-28T11:04:29.800Z,4.95
2022-09-28T11:07:33.498Z,5.45
2022-09-28T11:10:36.196Z,5.72
2022-09-28T11:13:50.406Z,5.53
2022-09-28T11:17:26.406Z,4.35
2022-09-28T11:20:29.157Z,4.75
2022-09-28T11:23:34.425Z,4.40
2022-09-28T11:26:59.957Z,4.60
2022-09-28T11:30:04.298Z,3.80
2022-09-28T11:33:17.656Z,5.22
2022-09-28T11:37:01.421Z,3.05
2022-09-28T11:40:15.788Z,2.13
2022-09-28T11:43:35.979Z,2.70
2022-09-28T11:46:44.148Z,4.13
2022-09-28T11:49:52.335Z,3.50
2022-09-28T11:53:11.689Z,3.80
2022-09-28T11:56:40.191Z,4.05
2022-09-28T12:00:01.838Z,2.90
2022-09-28T12:03:20.941Z,2.80
2022-09-28T12:06:29.871Z,4.63
2022-09-28T12:09:50.589Z,3.60
2022-09-28T12:13:03.879Z,2.83
2022-09-28T12:16:37.524Z,4.82
2022-09-28T12:20:22.206Z,2.90
2022-09-28T12:23:34.264Z,2.90
2022-09-28T12:26:42.246Z,3.30
2022-09-28T12:29:55.354Z,2.42
2022-09-28T12:33:13.176Z,2.88
2022-09-28T12:36:26.205Z,1.58
2022-09-28T12:39:57.384Z,5.10
2022-09-28T12:43:14.751Z,2.10
2022-09-28T12:47:05.773Z,2.13
2022-09-28T12:50:45.593Z,2.20
2022-09-28T12:53:49.269Z,2.97
2022-09-28T12:57:09.127Z,3.08
2022-09-28T13:00:10.883Z,2.25
2022-09-28T13:03:45.846Z,2.42
2022-09-28T13:07:06.660Z,2.22
2022-09-28T13:10:32.492Z,3.30
2022-09-28T13:13:40.076Z,2.17
2022-09-28T13:16:51.010Z,2.45
2022-09-28T13:20:04.074Z,3.35
2022-09-28T13:23:11.675Z,4.30
2022-09-28T13:26:28.088Z,3.40
2022-09-28T13:29:30.681Z,3.50
2022-09-28T13:32:37.318Z,3.10
2022-09-28T13:35:43.327Z,2.78
2022-09-28T13:38:49.588Z,3.20
2022-09-28T13:41:51.148Z,3.90
2022-09-28T13:45:15.717Z,3.03
2022-09-28T13:48:28.290Z,2.75
2022-09-28T13:51:58.132Z,2.75
2022-09-28T13:55:23.625Z,3.95
2022-09-28T13:58:31.195Z,3.00
2022-09-28T14:01:39.913Z,3.45
2022-09-28T14:04:57.007Z,3.20
2022-09-28T14:08:17.292Z,4.53
2022-09-28T14:11:40.647Z,2.70
2022-09-28T14:14:51.152Z,4.70
2022-09-28T14:18:17.177Z,2.92
2022-09-28T14:21:30.993Z,3.85
2022-09-28T14:24:47.774Z,3.70
2022-09-28T14:28:23.306Z,3.22
2022-09-28T14:31:28.224Z,2.80
2022-09-28T14:34:44.026Z,2.60
2022-09-28T14:38:08.318Z,3.25
2022-09-28T14:41:31.344Z,3.97
2022-09-28T14:45:15.788Z,3.03
2022-09-28T14:48:53.555Z,3.38
2022-09-28T14:51:55.859Z,2.95
2022-09-28T14:54:58.102Z,3.60
2022-09-28T14:57:59.745Z,3.30
2022-09-28T15:01:09.464Z,3.63
2022-09-28T15:04:12.907Z,3.42
2022-09-28T15:07:52.175Z,3.55
2022-09-28T15:10:53.896Z,3.72
2022-09-28T15:14:06.420Z,4.57
2022-09-28T15:17:14.879Z,3.70
2022-09-28T15:20:25.609Z,4.28
2022-09-28T15:23:33.503Z,4.05
2022-09-28T15:26:35.261Z,3.90
2022-09-28T15:29:37.053Z,3.90
2022-09-28T15:32:38.689Z,3.53
2022-09-28T15:35:40.678Z,3.42
2022-09-28T15:38:42.855Z,4.28
2022-09-28T15:41:46.769Z,5.32
2022-09-28T15:45:26.745Z,4.32
2022-09-28T15:48:45.512Z,3.80
2022-09-28T15:51:53.600Z,4.90
2022-09-28T15:54:55.722Z,3.20
2022-09-28T15:58:12.549Z,3.45
2022-09-28T16:01:20.112Z,3.45
2022-09-28T16:04:34.471Z,3.65
2022-09-28T16:07:56.021Z,3.50
2022-09-28T16:11:26.186Z,3.28
2022-09-28T16:14:27.785Z,3.35
2022-09-28T16:17:35.712Z,3.33
2022-09-28T16:20:39.733Z,3.53
2022-09-28T16:23:41.783Z,5.35
2022-09-28T16:26:43.558Z,3.50
2022-09-28T16:30:05.165Z,3.60
2022-09-28T16:33:40.111Z,5.20
2022-09-28T16:36:48.938Z,3.78
2022-09-28T16:39:50.587Z,3.50
2022-09-28T16:42:56.187Z,3.85
2022-09-28T16:46:12.799Z,3.17
2022-09-28T16:49:19.362Z,3.58
2022-09-28T16:52:40.924Z,3.88
2022-09-28T16:55:42.649Z,5.70
2022-09-28T16:58:47.979Z,4.95
2022-09-28T17:01:49.615Z,4.75
2022-09-28T17:04:51.565Z,3.75
2022-09-28T17:08:04.022Z,3.92
2022-09-28T17:11:16.949Z,4.07
2022-09-28T17:14:23.423Z,4.47
2022-09-28T17:17:29.736Z,5.25
2022-09-28T17:20:32.684Z,3.95
2022-09-28T17:23:34.239Z,3.88
2022-09-28T17:26:36.828Z,3.85
2022-09-28T17:29:38.472Z,4.82
2022-09-28T17:32:50.018Z,3.47
2022-09-28T17:35:53.340Z,4.00
2022-09-28T17:38:54.955Z,4.20
2022-09-28T17:41:56.498Z,5.35
2022-09-28T17:44:58.100Z,8.23
2022-09-28T17:48:00.695Z,7.32
2022-09-28T17:51:02.528Z,8.18
2022-09-28T17:54:06.030Z,11.57
2022-09-28T17:57:09.002Z,13.18
